Time;durP1;ratioP1;P1;durP2;ratioP2;P2;SDS_P1;SDS_P2;PMS_P1;PMS_P2;Temp;Humidity;BMP_temperature;BMP_pressure;BME280_temperature;BME280_humidity;BME280_pressure;Samples;Min_cycle;Max_cycle;Signal;HPM_P1;HPM_P2
2022/07/23 00:00:21;;;;;;;1999.90;999.90;;;17.60;99.90;;;;;;5045193;28;20462;-73
2022/07/23 00:02:47;;;;;;;1999.90;999.90;;;17.50;99.90;;;;;;5046771;28;20832;-73
2022/07/23 00:05:15;;;;;;;1999.90;999.90;;;17.60;99.90;;;;;;5050717;28;20525;-73
2022/07/23 00:07:42;;;;;;;1999.90;999.90;;;17.70;99.90;;;;;;5033968;28;20486;-74
2022/07/23 00:10:09;;;;;;;1999.90;999.90;;;17.90;99.90;;;;;;5029570;28;20463;-72
2022/07/23 00:12:37;;;;;;;1999.90;999.90;;;18.00;99.90;;;;;;5030503;28;20525;-70
2022/07/23 00:15:04;;;;;;;1999.90;999.90;;;18.20;99.90;;;;;;5030510;28;21002;-73
2022/07/23 00:17:31;;;;;;;1999.90;999.90;;;18.20;99.90;;;;;;5028389;28;20479;-73
2022/07/23 00:19:57;;;;;;;1999.90;999.90;;;18.10;99.90;;;;;;5029459;28;20879;-73
2022/07/23 00:22:25;;;;;;;1999.90;999.90;;;18.10;99.90;;;;;;5028722;28;20463;-73
2022/07/23 00:24:52;;;;;;;1999.90;999.90;;;17.90;99.90;;;;;;5033779;28;20458;-73
2022/07/23 00:27:19;;;;;;;1999.90;999.90;;;17.90;99.90;;;;;;5032611;28;20564;-73
2022/07/23 00:29:45;;;;;;;1999.90;999.90;;;18.00;99.90;;;;;;5031149;28;20443;-73
2022/07/23 00:32:12;;;;;;;1999.90;999.90;;;18.30;99.90;;;;;;5031644;28;20836;-73
2022/07/23 00:34:38;;;;;;;1999.90;999.90;;;18.10;99.90;;;;;;5031102;28;20443;-73
2022/07/23 00:37:05;;;;;;;1999.90;999.90;;;18.00;99.90;;;;;;5029716;28;20487;-73
2022/07/23 00:39:33;;;;;;;1999.90;999.90;;;17.90;99.90;;;;;;5031255;28;20451;-72
2022/07/23 00:42:00;;;;;;;1999.90;999.90;;;17.80;99.90;;;;;;5030332;28;20443;-73
2022/07/23 00:44:29;;;;;;;1999.90;999.90;;;18.00;99.90;;;;;;5031175;28;20483;-73
2022/07/23 00:46:58;;;;;;;1999.90;999.90;;;18.20;99.90;;;;;;5031169;28;20506;-72
2022/07/23 00:49:27;;;;;;;1999.90;999.90;;;18.10;99.90;;;;;;5034555;28;20443;-73
2022/07/23 00:51:55;;;;;;;1999.90;999.90;;;18.20;99.90;;;;;;5034549;28;20477;-73
2022/07/23 00:54:23;;;;;;;1999.90;999.90;;;18.10;99.90;;;;;;5035086;28;20467;-73
2022/07/23 00:56:52;;;;;;;1999.90;999.90;;;18.10;99.90;;;;;;5032912;28;20996;-70
2022/07/23 00:59:18;;;;;;;1999.90;999.90;;;18.10;99.90;;;;;;5034342;28;21010;-73
2022/07/23 01:01:47;;;;;;;1999.90;999.90;;;18.10;99.90;;;;;;5034604;28;20447;-73
2022/07/23 01:04:14;;;;;;;1999.90;999.90;;;18.10;99.90;;;;;;5034572;28;20849;-74
2022/07/23 01:06:41;;;;;;;1999.90;999.90;;;18.10;99.90;;;;;;5033607;28;20473;-73
2022/07/23 01:09:08;;;;;;;1999.90;999.90;;;18.20;99.90;;;;;;5034777;28;20482;-73
2022/07/23 01:11:36;;;;;;;1999.90;999.90;;;18.10;99.90;;;;;;5032133;28;20853;-73
2022/07/23 01:14:11;;;;;;;1999.90;999.90;;;18.00;99.90;;;;;;5034266;28;20485;-73
2022/07/23 01:16:38;;;;;;;1999.90;999.90;;;18.10;99.90;;;;;;5033125;28;20470;-72
2022/07/23 01:19:06;;;;;;;1999.90;999.90;;;18.00;99.90;;;;;;5034097;28;20439;-73
2022/07/23 01:21:34;;;;;;;1999.90;999.90;;;17.90;99.90;;;;;;5033840;28;20453;-73
2022/07/23 01:24:02;;;;;;;1999.90;999.90;;;17.80;99.90;;;;;;5033924;28;21069;-73
2022/07/23 01:26:29;;;;;;;1999.90;999.90;;;17.80;99.90;;;;;;5033555;28;20467;-72
2022/07/23 01:28:55;;;;;;;1999.90;999.90;;;17.80;99.90;;;;;;5033991;28;20513;-73
2022/07/23 01:31:22;;;;;;;1999.90;999.90;;;17.80;99.90;;;;;;5033702;28;20505;-73
2022/07/23 01:33:49;;;;;;;1999.90;999.90;;;17.90;99.90;;;;;;5034099;28;20451;-73
2022/07/23 01:36:15;;;;;;;1999.90;999.90;;;17.90;99.90;;;;;;5032008;28;20907;-73
2022/07/23 01:38:42;;;;;;;1999.90;999.90;;;17.70;99.90;;;;;;5033611;28;20451;-73
2022/07/23 01:41:10;;;;;;;1999.90;999.90;;;17.70;99.90;;;;;;5033014;28;20521;-73
2022/07/23 01:43:37;;;;;;;1999.90;999.90;;;17.80;99.90;;;;;;5034124;28;20552;-74
2022/07/23 01:46:03;;;;;;;1999.90;999.90;;;17.80;99.90;;;;;;5032894;28;20455;-73
2022/07/23 01:48:30;;;;;;;1999.90;999.90;;;17.60;99.90;;;;;;5033867;28;20493;-73
2022/07/23 01:50:56;;;;;;;1999.90;999.90;;;17.70;99.90;;;;;;5033454;28;20447;-73
2022/07/23 01:53:23;;;;;;;1999.90;999.90;;;17.70;99.90;;;;;;5034191;28;20443;-73
2022/07/23 01:55:50;;;;;;;1999.90;999.90;;;17.80;99.90;;;;;;5032053;28;21029;-74
2022/07/23 01:58:18;;;;;;;1999.90;999.90;;;17.80;99.90;;;;;;5033269;28;20834;-73
2022/07/23 02:00:44;;;;;;;1999.90;999.90;;;17.80;99.90;;;;;;5033069;28;20513;-73
2022/07/23 02:03:11;;;;;;;1999.90;999.90;;;17.70;99.90;;;;;;5033173;28;20479;-73
2022/07/23 02:05:37;;;;;;;1999.90;999.90;;;17.50;99.90;;;;;;5031454;28;20474;-73
2022/07/23 02:08:04;;;;;;;1999.90;999.90;;;17.30;99.90;;;;;;5033198;28;21025;-73
2022/07/23 02:10:31;;;;;;;1999.90;999.90;;;17.30;99.90;;;;;;5032672;28;20461;-73
2022/07/23 02:12:58;;;;;;;1999.90;999.90;;;17.30;99.90;;;;;;5033175;28;20806;-73
2022/07/23 02:15:26;;;;;;;1999.90;999.90;;;17.40;99.90;;;;;;5032220;28;20459;-73
2022/07/23 02:17:52;;;;;;;1999.90;999.90;;;17.40;99.90;;;;;;5032640;28;20541;-73
2022/07/23 02:20:19;;;;;;;1999.90;999.90;;;17.30;99.90;;;;;;5031288;28;20443;-73
2022/07/23 02:22:45;;;;;;;1999.90;999.90;;;17.10;99.90;;;;;;5030954;28;20952;-69
2022/07/23 02:25:12;;;;;;;1999.90;999.90;;;17.10;99.90;;;;;;5030789;28;20518;-73
2022/07/23 02:27:39;;;;;;;1999.90;999.90;;;17.10;99.90;;;;;;5031276;28;20486;-73
2022/07/23 02:30:07;;;;;;;1999.90;999.90;;;17.20;99.90;;;;;;5031303;28;20447;-73
2022/07/23 02:32:35;;;;;;;1999.90;999.90;;;17.10;99.90;;;;;;5030971;28;20506;-72
2022/07/23 02:35:03;;;;;;;1999.90;999.90;;;17.00;99.90;;;;;;5031081;28;20459;-73
2022/07/23 02:37:30;;;;;;;1999.90;999.90;;;17.20;99.90;;;;;;5032570;28;20467;-73
2022/07/23 02:39:56;;;;;;;1999.90;999.90;;;17.10;99.90;;;;;;5032328;28;20451;-73
2022/07/23 02:42:23;;;;;;;1999.90;999.90;;;17.20;99.90;;;;;;5032145;28;20940;-75
2022/07/23 02:44:50;;;;;;;1999.90;999.90;;;17.20;99.90;;;;;;5032057;28;20487;-75
2022/07/23 02:47:17;;;;;;;1999.90;999.90;;;17.30;99.90;;;;;;5032646;28;20463;-74
2022/07/23 02:49:45;;;;;;;1999.90;999.90;;;17.40;99.90;;;;;;5032176;28;20447;-74
2022/07/23 02:52:12;;;;;;;1999.90;999.90;;;17.40;99.90;;;;;;5032474;28;20451;-76
2022/07/23 02:54:38;;;;;;;1999.90;999.90;;;17.40;99.90;;;;;;5031789;28;20447;-73
2022/07/23 02:57:05;;;;;;;1999.90;999.90;;;17.40;99.90;;;;;;5030951;28;20532;-75
2022/07/23 02:59:32;;;;;;;1999.90;999.90;;;17.40;99.90;;;;;;5032437;28;21008;-75
2022/07/23 03:01:59;;;;;;;1999.90;999.90;;;17.30;99.90;;;;;;5032348;28;20451;-75
2022/07/23 03:04:25;;;;;;;1999.90;999.90;;;17.30;99.90;;;;;;5032193;28;20526;-75
2022/07/23 03:06:53;;;;;;;1999.90;999.90;;;17.30;99.90;;;;;;5031048;28;20483;-75
2022/07/23 03:09:20;;;;;;;1999.90;999.90;;;17.30;99.90;;;;;;5031575;28;21007;-75
2022/07/23 03:11:46;;;;;;;1999.90;999.90;;;17.20;99.90;;;;;;5032173;28;20447;-75
2022/07/23 03:14:13;;;;;;;1999.90;999.90;;;17.10;99.90;;;;;;5031958;28;20952;-75
2022/07/23 03:16:40;;;;;;;1999.90;999.90;;;17.20;99.90;;;;;;5031425;28;20479;-75
2022/07/23 03:19:06;;;;;;;1999.90;999.90;;;17.00;99.90;;;;;;5031904;28;20481;-75
2022/07/23 03:21:33;;;;;;;1999.90;999.90;;;16.90;99.90;;;;;;5031662;28;20447;-75
2022/07/23 03:24:01;;;;;;;1999.90;999.90;;;17.10;99.90;;;;;;5031995;28;20483;-75
2022/07/23 03:26:28;;;;;;;1999.90;999.90;;;17.10;99.90;;;;;;5031790;28;20533;-75
2022/07/23 03:28:54;;;;;;;1999.90;999.90;;;17.10;99.90;;;;;;5032571;28;20469;-74
2022/07/23 03:31:21;;;;;;;1999.90;999.90;;;17.10;99.90;;;;;;5032480;28;20455;-74
2022/07/23 03:33:48;;;;;;;1999.90;999.90;;;17.00;99.90;;;;;;5032642;28;21002;-74
2022/07/23 03:36:14;;;;;;;1999.90;999.90;;;17.00;99.90;;;;;;5031144;28;20862;-75
2022/07/23 03:38:41;;;;;;;1999.90;999.90;;;17.00;99.90;;;;;;5032543;28;20478;-74
2022/07/23 03:41:09;;;;;;;1999.90;999.90;;;17.00;99.90;;;;;;5032845;28;20489;-74
2022/07/23 03:43:35;;;;;;;1999.90;999.90;;;16.90;99.90;;;;;;5032391;28;20450;-74
2022/07/23 03:46:02;;;;;;;1999.90;999.90;;;17.00;99.90;;;;;;5028736;28;20513;-74
2022/07/23 03:48:29;;;;;;;1999.90;999.90;;;17.10;99.90;;;;;;5028673;28;20463;-74
2022/07/23 03:50:55;;;;;;;1999.90;999.90;;;17.00;99.90;;;;;;5031587;28;20499;-74
2022/07/23 03:53:22;;;;;;;1999.90;999.90;;;17.10;99.90;;;;;;5032795;28;20501;-74
2022/07/23 03:55:48;;;;;;;1999.90;999.90;;;17.10;99.90;;;;;;5031366;28;20474;-74
2022/07/23 03:58:16;;;;;;;1999.90;999.90;;;17.00;99.90;;;;;;5032630;28;20486;-73
2022/07/23 04:00:43;;;;;;;1999.90;999.90;;;16.90;99.90;;;;;;5013012;28;20463;-74
2022/07/23 04:03:10;;;;;;;1999.90;999.90;;;16.80;99.90;;;;;;5013231;28;20449;-74
2022/07/23 04:05:36;;;;;;;1999.90;999.90;;;16.80;99.90;;;;;;5012896;28;20900;-73
2022/07/23 04:08:03;;;;;;;1999.90;999.90;;;16.80;99.90;;;;;;5032166;28;20524;-75
2022/07/23 04:10:29;;;;;;;1999.90;999.90;;;17.10;99.90;;;;;;5031370;28;20439;-74
2022/07/23 04:12:56;;;;;;;1999.90;999.90;;;16.90;99.90;;;;;;5032012;28;20892;-74
2022/07/23 04:15:24;;;;;;;1999.90;999.90;;;16.90;99.90;;;;;;5031882;28;20442;-70
2022/07/23 04:17:51;;;;;;;1999.90;999.90;;;17.00;99.90;;;;;;5029645;28;20474;-74
2022/07/23 04:20:17;;;;;;;1999.90;999.90;;;17.00;99.90;;;;;;5031030;28;20443;-74
2022/07/23 04:22:44;;;;;;;1999.90;999.90;;;16.90;99.90;;;;;;5034010;28;20500;-74
2022/07/23 04:25:10;;;;;;;1999.90;999.90;;;16.90;99.90;;;;;;5035328;28;20506;-74
2022/07/23 04:27:37;;;;;;;1999.90;999.90;;;16.90;99.90;;;;;;5034220;28;20483;-74
2022/07/23 04:30:04;;;;;;;1999.90;999.90;;;17.00;99.90;;;;;;5034967;28;20466;-74
2022/07/23 04:32:32;;;;;;;1999.90;999.90;;;17.00;99.90;;;;;;5034902;28;20505;-75
2022/07/23 04:34:58;;;;;;;1999.90;999.90;;;17.00;99.90;;;;;;5035217;28;20440;-74
2022/07/23 04:37:25;;;;;;;1999.90;999.90;;;17.00;99.90;;;;;;5033815;28;20478;-75
2022/07/23 04:39:52;;;;;;;1999.90;999.90;;;17.00;99.90;;;;;;5034764;28;20829;-74
2022/07/23 04:42:18;;;;;;;1999.90;999.90;;;17.00;99.90;;;;;;5034278;28;20442;-74
2022/07/23 04:44:45;;;;;;;1999.90;999.90;;;17.00;99.90;;;;;;5034673;28;20570;-74
2022/07/23 04:47:11;;;;;;;1999.90;999.90;;;16.90;99.90;;;;;;5032942;28;20514;-74
2022/07/23 04:49:39;;;;;;;1999.90;999.90;;;16.70;99.90;;;;;;5034488;28;20489;-72
2022/07/23 04:52:06;;;;;;;1999.90;999.90;;;17.00;99.90;;;;;;5034503;28;20447;-73
2022/07/23 04:54:33;;;;;;;1999.90;999.90;;;16.80;99.90;;;;;;5034614;28;20937;-73
2022/07/23 04:56:59;;;;;;;1999.90;999.90;;;16.80;99.90;;;;;;5033310;28;20479;-72
2022/07/23 04:59:26;;;;;;;1999.90;999.90;;;17.00;99.90;;;;;;5033681;28;20516;-73
2022/07/23 05:01:53;;;;;;;1999.90;999.90;;;17.00;99.90;;;;;;5034378;28;20452;-73
2022/07/23 05:04:19;;;;;;;1999.90;999.90;;;17.10;99.90;;;;;;5034464;28;20482;-73
2022/07/23 05:06:47;;;;;;;1999.90;999.90;;;17.20;99.90;;;;;;5034831;28;20475;-73
2022/07/23 05:09:14;;;;;;;1999.90;999.90;;;17.40;99.90;;;;;;5033690;28;20467;-75
2022/07/23 05:11:40;;;;;;;1999.90;999.90;;;17.40;99.90;;;;;;5034010;28;21071;-73
2022/07/23 05:14:07;;;;;;;1999.90;999.90;;;17.40;99.90;;;;;;5034250;28;20455;-73
2022/07/23 05:16:34;;;;;;;1999.90;999.90;;;17.50;99.90;;;;;;5034281;28;20462;-72
2022/07/23 05:19:00;;;;;;;1999.90;999.90;;;17.50;99.90;;;;;;5033561;28;20884;-73
2022/07/23 05:21:27;;;;;;;1999.90;999.90;;;17.60;99.90;;;;;;5033908;28;20513;-73
2022/07/23 05:23:55;;;;;;;1999.90;999.90;;;17.40;99.90;;;;;;5034015;28;20509;-73
2022/07/23 05:26:21;;;;;;;1999.90;999.90;;;17.50;99.90;;;;;;5031330;28;21074;-73
2022/07/23 05:28:48;;;;;;;1999.90;999.90;;;17.60;99.90;;;;;;5034013;28;20537;-71
2022/07/23 05:31:15;;;;;;;1999.90;999.90;;;17.80;99.90;;;;;;5035401;28;20560;-73
2022/07/23 05:33:41;;;;;;;1999.90;999.90;;;17.80;99.90;;;;;;5040660;28;20495;-73
2022/07/23 05:36:08;;;;;;;1999.90;999.90;;;17.90;99.90;;;;;;5038623;28;20544;-73
2022/07/23 05:38:35;;;;;;;1999.90;999.90;;;18.00;99.90;;;;;;5035527;28;20556;-73
2022/07/23 05:41:03;;;;;;;1999.90;999.90;;;18.10;99.90;;;;;;5034632;28;20458;-74
2022/07/23 05:43:30;;;;;;;1999.90;999.90;;;18.20;99.90;;;;;;5039430;28;20513;-73
2022/07/23 05:45:57;;;;;;;1999.90;999.90;;;18.30;99.90;;;;;;5037833;28;20532;-73
2022/07/23 05:48:23;;;;;;;1999.90;999.90;;;18.30;99.90;;;;;;5034194;28;20516;-73
2022/07/23 05:50:50;;;;;;;1999.90;999.90;;;18.40;99.90;;;;;;5033308;28;20462;-72
2022/07/23 05:53:16;;;;;;;1999.90;999.90;;;18.50;99.90;;;;;;5039962;28;20536;-74
2022/07/23 05:55:43;;;;;;;1999.90;999.90;;;19.00;99.90;;;;;;5036582;28;20455;-73
2022/07/23 05:58:11;;;;;;;1999.90;999.90;;;19.40;99.90;;;;;;5068138;22;21093;-66
2022/07/23 06:00:38;;;;;;;1999.90;999.90;;;19.80;99.90;;;;;;5048590;28;20523;-67
2022/07/23 06:03:04;;;;;;;1999.90;999.90;;;20.00;99.90;;;;;;5042315;28;20463;-66
2022/07/23 06:05:31;;;;;;;1999.90;999.90;;;20.40;99.90;;;;;;5046472;28;20482;-66
2022/07/23 06:07:58;;;;;;;1999.90;999.90;;;20.50;99.90;;;;;;5039086;28;20522;-67
2022/07/23 06:27:49;;;;;;;1999.90;999.90;;;19.20;99.90;;;;;;5082332;27;20628;-66
2022/07/23 06:30:17;;;;;;;1999.90;999.90;;;19.20;99.90;;;;;;5082189;28;20462;-66
2022/07/23 06:32:44;;;;;;;1999.90;999.90;;;19.60;99.90;;;;;;5095946;22;20546;-72
2022/07/23 06:35:10;;;;;;;1999.90;999.90;;;19.70;99.90;;;;;;5071315;28;20469;-74
2022/07/23 06:37:37;;;;;;;1999.90;999.90;;;19.70;99.90;;;;;;5075139;28;21018;-70
2022/07/23 06:40:04;;;;;;;1999.90;999.90;;;19.80;99.90;;;;;;5072745;28;20519;-74
2022/07/23 06:42:31;;;;;;;1999.90;999.90;;;19.80;99.90;;;;;;5061206;28;20482;-72
2022/07/23 06:44:59;;;;;;;1999.90;999.90;;;19.80;99.90;;;;;;5049791;28;20528;-73
2022/07/23 06:47:25;;;;;;;1999.90;999.90;;;19.80;99.90;;;;;;5053723;28;20528;-74
2022/07/23 06:49:52;;;;;;;1999.90;999.90;;;20.00;99.90;;;;;;5052922;28;20467;-74
2022/07/23 06:52:19;;;;;;;1999.90;999.90;;;20.30;99.90;;;;;;5044756;28;20516;-74
2022/07/23 06:54:45;;;;;;;1999.90;999.90;;;20.50;99.90;;;;;;5044856;28;20878;-73
2022/07/23 06:57:12;;;;;;;1999.90;999.90;;;20.70;99.90;;;;;;5056730;28;20539;-74
2022/07/23 06:59:40;;;;;;;1999.90;999.90;;;20.60;99.90;;;;;;5051533;28;20515;-73
2022/07/23 07:02:08;;;;;;;1999.90;999.90;;;20.70;99.90;;;;;;5044322;28;20876;-73
2022/07/23 07:04:35;;;;;;;1999.90;999.90;;;20.60;99.90;;;;;;5054608;28;20550;-73
2022/07/23 07:07:02;;;;;;;1999.90;999.90;;;20.50;99.90;;;;;;5053533;28;20512;-72
2022/07/23 07:09:28;;;;;;;1999.90;999.90;;;20.30;99.90;;;;;;5053034;28;20511;-72
2022/07/23 07:11:56;;;;;;;1999.90;999.90;;;20.20;99.90;;;;;;5042683;28;21896;-74
2022/07/23 07:14:23;;;;;;;1999.90;999.90;;;19.90;99.90;;;;;;5044144;28;20528;-72
2022/07/23 07:16:49;;;;;;;1999.90;999.90;;;19.80;99.90;;;;;;5048323;28;20845;-73
2022/07/23 07:19:17;;;;;;;1999.90;999.90;;;20.10;99.90;;;;;;5049200;28;20541;-73
2022/07/23 07:21:44;;;;;;;1999.90;999.90;;;20.20;99.90;;;;;;5044820;28;20458;-74
2022/07/23 07:24:10;;;;;;;1999.90;999.90;;;20.20;99.90;;;;;;5050154;28;20486;-74
2022/07/23 07:26:38;;;;;;;1999.90;999.90;;;20.10;99.90;;;;;;5055050;28;20504;-71
2022/07/23 07:29:05;;;;;;;1999.90;999.90;;;20.10;99.90;;;;;;5038138;28;20454;-73
2022/07/23 07:31:32;;;;;;;1999.90;999.90;;;20.50;99.90;;;;;;5035773;28;20505;-73
2022/07/23 07:33:59;;;;;;;1999.90;999.90;;;20.90;99.90;;;;;;5036046;28;20544;-73
2022/07/23 07:36:27;;;;;;;1999.90;999.90;;;20.50;99.90;;;;;;5044855;28;20486;-73
2022/07/23 07:38:54;;;;;;;1999.90;999.90;;;20.60;99.90;;;;;;5039998;28;20886;-73
2022/07/23 07:41:23;;;;;;;1999.90;999.90;;;20.80;99.90;;;;;;5031607;28;20955;-73
2022/07/23 07:43:50;;;;;;;1999.90;999.90;;;20.90;99.90;;;;;;5040856;28;20474;-73
2022/07/23 07:46:17;;;;;;;1999.90;999.90;;;21.00;99.90;;;;;;5039116;28;20458;-72
2022/07/23 07:48:43;;;;;;;1999.90;999.90;;;21.00;99.90;;;;;;5039318;28;20519;-71
2022/07/23 07:51:10;;;;;;;1999.90;999.90;;;21.10;99.90;;;;;;5031397;28;20517;-73
2022/07/23 07:53:38;;;;;;;1999.90;999.90;;;21.00;99.90;;;;;;5040751;28;20482;-69
2022/07/23 07:56:05;;;;;;;1999.90;999.90;;;21.10;99.90;;;;;;5042933;28;20479;-73
2022/07/23 07:58:32;;;;;;;1999.90;999.90;;;21.50;99.90;;;;;;5045545;28;20520;-72
2022/07/23 08:00:58;;;;;;;1999.90;999.90;;;21.50;99.90;;;;;;5026079;28;20525;-73
2022/07/23 08:03:25;;;;;;;1999.90;999.90;;;21.50;99.90;;;;;;5031773;28;20536;-73
2022/07/23 08:05:52;;;;;;;1999.90;999.90;;;21.30;99.90;;;;;;5029636;28;20455;-72
2022/07/23 08:08:18;;;;;;;1999.90;999.90;;;21.60;99.90;;;;;;5031777;28;20462;-73
2022/07/23 08:10:46;;;;;;;1999.90;999.90;;;21.50;99.90;;;;;;5030763;28;20459;-73
2022/07/23 08:13:15;;;;;;;1999.90;999.90;;;21.70;99.90;;;;;;5031865;28;21019;-73
2022/07/23 08:15:42;;;;;;;1999.90;999.90;;;21.70;99.90;;;;;;5030040;28;20466;-73
2022/07/23 08:18:08;;;;;;;1999.90;999.90;;;21.90;99.90;;;;;;5030947;28;20463;-73
2022/07/23 08:20:35;;;;;;;1999.90;999.90;;;21.80;99.90;;;;;;5031655;28;20889;-73
2022/07/23 08:23:05;;;;;;;1999.90;999.90;;;21.80;99.90;;;;;;5027767;28;20487;-73
2022/07/23 08:25:34;;;;;;;1999.90;999.90;;;21.80;99.90;;;;;;5031095;28;20987;-73
2022/07/23 08:28:05;;;;;;;1999.90;999.90;;;21.90;99.90;;;;;;5029167;28;20463;-74
2022/07/23 08:30:33;;;;;;;1999.90;999.90;;;21.80;99.90;;;;;;5031469;28;20514;-73
2022/07/23 08:33:01;;;;;;;1999.90;999.90;;;22.00;99.90;;;;;;5028017;28;20502;-73
2022/07/23 08:35:29;;;;;;;1999.90;999.90;;;22.30;99.90;;;;;;5032033;28;20976;-74
2022/07/23 08:37:57;;;;;;;1999.90;999.90;;;22.90;99.90;;;;;;5028637;28;20639;-73
2022/07/23 08:40:26;;;;;;;1999.90;999.90;;;22.60;99.90;;;;;;5031492;28;20456;-73
2022/07/23 08:42:52;;;;;;;1999.90;999.90;;;22.30;99.90;;;;;;5028431;28;20533;-73
2022/07/23 08:45:22;;;;;;;1999.90;999.90;;;22.30;99.90;;;;;;5029706;28;20467;-73
2022/07/23 08:47:53;;;;;;;1999.90;999.90;;;22.70;99.90;;;;;;5029139;28;20455;-73
2022/07/23 08:50:21;;;;;;;1999.90;999.90;;;23.20;99.90;;;;;;5032626;28;20467;-73
2022/07/23 08:52:50;;;;;;;1999.90;999.90;;;23.20;99.90;;;;;;5029397;28;20483;-73
2022/07/23 08:55:18;;;;;;;1999.90;999.90;;;23.10;99.90;;;;;;5029609;28;20552;-72
2022/07/23 08:57:45;;;;;;;1999.90;999.90;;;23.10;99.90;;;;;;5027638;28;20482;-73
2022/07/23 09:00:13;;;;;;;1999.90;999.90;;;23.00;99.90;;;;;;5023943;28;20463;-73
2022/07/23 09:02:42;;;;;;;1999.90;999.90;;;22.80;99.90;;;;;;5027613;28;20541;-71
2022/07/23 09:05:10;;;;;;;1999.90;999.90;;;22.60;99.90;;;;;;5030354;28;20463;-74
2022/07/23 09:08:08;;;;;;;1999.90;999.90;;;22.70;99.90;;;;;;5031209;28;20982;-73
2022/07/23 09:10:48;;;;;;;1999.90;999.90;;;23.30;99.90;;;;;;5025657;28;20884;-73
2022/07/23 09:13:40;;;;;;;1999.90;999.90;;;23.40;99.90;;;;;;5030393;28;21007;-73
2022/07/23 09:16:10;;;;;;;1999.90;999.90;;;23.60;99.90;;;;;;5030004;28;20499;-73
2022/07/23 09:18:43;;;;;;;1999.90;999.90;;;23.20;99.90;;;;;;5029527;28;20458;-73
2022/07/23 09:21:12;;;;;;;1999.90;999.90;;;23.10;99.90;;;;;;5028654;28;20455;-73
2022/07/23 09:23:41;;;;;;;1999.90;999.90;;;23.50;99.90;;;;;;5024819;28;20483;-73
2022/07/23 09:26:33;;;;;;;1999.90;999.90;;;23.60;99.90;;;;;;5028485;28;20467;-73
2022/07/23 09:29:10;;;;;;;1999.90;999.90;;;23.40;99.90;;;;;;5025022;28;20479;-73
2022/07/23 09:31:46;;;;;;;1999.90;999.90;;;23.20;99.90;;;;;;5025860;28;20840;-74
2022/07/23 09:34:17;;;;;;;1999.90;999.90;;;23.30;99.90;;;;;;5028569;28;20499;-73
2022/07/23 09:36:44;;;;;;;1999.90;999.90;;;23.30;99.90;;;;;;5028419;28;20525;-72
2022/07/23 09:39:12;;;;;;;1999.90;999.90;;;23.60;99.90;;;;;;5034069;28;20467;-73
2022/07/23 09:41:42;;;;;;;1999.90;999.90;;;23.90;99.90;;;;;;5034572;28;20467;-72
2022/07/23 09:44:15;;;;;;;1999.90;999.90;;;23.80;99.90;;;;;;5029046;28;20483;-72
2022/07/23 09:46:43;;;;;;;1999.90;999.90;;;23.70;99.90;;;;;;5035484;28;20459;-72
2022/07/23 09:49:20;;;;;;;1999.90;999.90;;;23.40;99.90;;;;;;5030032;28;20470;-73
2022/07/23 09:51:49;;;;;;;1999.90;999.90;;;23.40;99.90;;;;;;5041178;28;20442;-72
2022/07/23 09:54:34;;;;;;;1999.90;999.90;;;22.90;99.90;;;;;;5049848;28;20462;-72
2022/07/23 09:57:05;;;;;;;1999.90;999.90;;;23.10;99.90;;;;;;5021121;28;22395;-72
2022/07/23 09:59:35;;;;;;;1999.90;999.90;;;23.20;99.90;;;;;;5022085;28;20459;-71
2022/07/23 10:02:04;;;;;;;1999.90;999.90;;;23.40;99.90;;;;;;5028218;28;20466;-73
2022/07/23 10:04:32;;;;;;;1999.90;999.90;;;23.40;99.90;;;;;;5040950;28;20477;-73
2022/07/23 10:07:01;;;;;;;1999.90;999.90;;;23.50;99.90;;;;;;5027636;28;20459;-73
2022/07/23 10:09:30;;;;;;;1999.90;999.90;;;23.50;99.90;;;;;;5029112;28;20530;-70
2022/07/23 10:12:06;;;;;;;1999.90;999.90;;;23.50;99.90;;;;;;5030254;28;20493;-74
2022/07/23 10:14:34;;;;;;;1999.90;999.90;;;23.60;99.90;;;;;;5031735;28;20553;-74
2022/07/23 10:17:02;;;;;;;1999.90;999.90;;;23.70;99.90;;;;;;5031509;28;20471;-71
2022/07/23 10:19:29;;;;;;;1999.90;999.90;;;23.50;99.90;;;;;;5031850;28;20459;-73
2022/07/23 10:22:01;;;;;;;1999.90;999.90;;;23.50;99.90;;;;;;5028657;28;20529;-70
2022/07/23 10:24:53;;;;;;;1999.90;999.90;;;23.50;99.90;;;;;;5025665;28;20479;-70
2022/07/23 10:27:55;;;;;;;1999.90;999.90;;;23.80;99.90;;;;;;5031952;28;20963;-72
2022/07/23 10:30:31;;;;;;;1999.90;999.90;;;23.90;99.90;;;;;;5027739;28;20459;-73
2022/07/23 10:33:15;;;;;;;1999.90;999.90;;;24.30;99.90;;;;;;5031489;28;20486;-72
2022/07/23 10:35:50;;;;;;;1999.90;999.90;;;24.30;99.40;;;;;;5025626;28;20486;-73
2022/07/23 10:38:23;;;;;;;1999.90;999.90;;;24.40;99.20;;;;;;5028488;28;20490;-74
2022/07/23 10:40:59;;;;;;;1999.90;999.90;;;24.30;99.10;;;;;;5030565;28;20471;-74
2022/07/23 10:43:26;;;;;;;1999.90;999.90;;;24.30;98.30;;;;;;5029017;28;20482;-73
2022/07/23 10:45:53;;;;;;;1999.90;999.90;;;24.30;98.20;;;;;;5025465;28;20529;-70
2022/07/23 10:48:22;;;;;;;1999.90;999.90;;;24.30;98.80;;;;;;5029613;28;20885;-72
2022/07/23 10:51:08;;;;;;;1999.90;999.90;;;24.10;97.90;;;;;;5029815;28;20486;-72
2022/07/23 10:53:57;;;;;;;1999.90;999.90;;;23.80;98.80;;;;;;5026348;28;20486;-72
2022/07/23 10:57:08;;;;;;;1999.90;999.90;;;23.80;98.70;;;;;;5028772;28;20459;-70
2022/07/23 11:00:12;;;;;;;1999.90;999.90;;;24.00;99.00;;;;;;5028181;28;20844;-73
2022/07/23 11:02:40;;;;;;;1999.90;999.90;;;23.90;98.10;;;;;;5027874;28;20509;-72
2022/07/23 11:05:09;;;;;;;1999.90;999.90;;;24.10;98.00;;;;;;5036306;28;20467;-72
2022/07/23 11:07:37;;;;;;;1999.90;999.90;;;24.00;97.80;;;;;;5034365;28;21363;-73
2022/07/23 11:10:06;;;;;;;1999.90;999.90;;;24.00;97.60;;;;;;5030663;28;20959;-73
2022/07/23 11:12:34;;;;;;;1999.90;999.90;;;24.10;97.90;;;;;;5032897;28;20544;-73
2022/07/23 11:15:03;;;;;;;1999.90;999.90;;;24.30;97.10;;;;;;5032872;28;20502;-72
2022/07/23 11:17:31;;;;;;;1999.90;999.90;;;24.40;96.90;;;;;;5029930;28;20479;-73
2022/07/23 11:20:21;;;;;;;1999.90;999.90;;;24.70;96.60;;;;;;5033366;28;20513;-73
2022/07/23 11:22:50;;;;;;;1999.90;999.90;;;24.70;97.00;;;;;;5027422;28;20987;-73
2022/07/23 11:25:34;;;;;;;1999.90;999.90;;;24.60;96.60;;;;;;5035597;28;20555;-72
2022/07/23 11:28:12;;;;;;;1999.90;999.90;;;24.70;96.60;;;;;;5033279;28;20485;-73
2022/07/23 11:30:41;;;;;;;1999.90;999.90;;;24.80;96.10;;;;;;5030427;28;20455;-73
2022/07/23 11:33:22;;;;;;;1999.90;999.90;;;24.90;95.40;;;;;;5031438;28;20487;-72
2022/07/23 11:35:59;;;;;;;1999.90;999.90;;;24.90;95.60;;;;;;5029710;28;20505;-69
2022/07/23 11:38:26;;;;;;;1999.90;999.90;;;24.90;96.00;;;;;;5034236;28;20835;-72
2022/07/23 11:40:57;;;;;;;1999.90;999.90;;;25.00;95.50;;;;;;5033995;28;20529;-72
2022/07/23 11:43:24;;;;;;;1999.90;999.90;;;24.90;95.30;;;;;;5032017;28;20532;-73
2022/07/23 11:45:53;;;;;;;1999.90;999.90;;;24.90;95.00;;;;;;5030386;28;20523;-73
2022/07/23 11:48:22;;;;;;;1999.90;999.90;;;24.80;95.10;;;;;;5031552;28;20459;-73
2022/07/23 11:50:50;;;;;;;1999.90;999.90;;;24.80;95.80;;;;;;5031396;28;21115;-72
2022/07/23 11:53:22;;;;;;;1999.90;999.90;;;25.10;95.70;;;;;;5032000;28;21638;-73
2022/07/23 11:55:49;;;;;;;1999.90;999.90;;;25.20;94.80;;;;;;5032109;28;20455;-73
2022/07/23 11:58:17;;;;;;;1999.90;999.90;;;25.00;94.80;;;;;;5028918;28;20572;-73
2022/07/23 12:00:44;;;;;;;1999.90;999.90;;;24.90;95.10;;;;;;5031668;28;20908;-72
2022/07/23 12:03:11;;;;;;;1999.90;999.90;;;25.10;95.20;;;;;;5030173;28;20541;-73
2022/07/23 12:05:39;;;;;;;1999.90;999.90;;;25.00;94.70;;;;;;5032507;28;20517;-71
2022/07/23 12:08:07;;;;;;;1999.90;999.90;;;25.00;95.10;;;;;;5032799;28;20490;-73
2022/07/23 12:10:37;;;;;;;1999.90;999.90;;;25.10;95.10;;;;;;5031349;28;20467;-73
2022/07/23 12:13:06;;;;;;;1999.90;999.90;;;25.30;95.00;;;;;;5030132;28;20487;-73
2022/07/23 12:15:38;;;;;;;1999.90;999.90;;;25.20;94.50;;;;;;5027695;28;20463;-73
2022/07/23 12:18:05;;;;;;;1999.90;999.90;;;25.10;94.60;;;;;;5032473;28;20984;-73
2022/07/23 12:20:34;;;;;;;1999.90;999.90;;;25.10;94.50;;;;;;5030804;28;20463;-76
2022/07/23 12:23:03;;;;;;;1999.90;999.90;;;25.20;94.80;;;;;;5030361;28;20537;-71